SECU/CUE METAR and TAF weather

Enter ICAO airport designator
Station Type Date Time Source
SECU METAR 2020/01/21 15:00 UTC NOAA

SECU 211500Z 23003KT 9999 SCT030 BKN100 17/13 Q1028


Station Type Date Time Source
SECU Decoded METAR 2020/01/21 15:00 UTC NOAA

Cuenca / Mariscal Lamar, Ecuador (SECU) 02-53S 078-59W 2531M
Jan 21, 2020 - 10:00 AM EST / 2020.01.21 1500 UTC
Wind: from the SW (230 degrees) at 3 MPH (3 KT):0
Visibility: greater than 7 mile(s):0
Sky conditions: mostly cloudy
Temperature: 62 F (17 C)
Dew Point: 55 F (13 C)
Relative Humidity: 77%
Pressure (altimeter): 30.36 in. Hg (1028 hPa)
ob: SECU 211500Z 23003KT 9999 SCT030 BKN100 17/13 Q1028
cycle: 15

Station Type Date Time Source
SECU TAF 2019/10/28 06:45 UTC NOAA

TAF SECU 280435Z 2806/2906 VRB03KT 9999 FEW010 BKN033
BECMG 2814/2815 05005KT BKN040 BKN100 TX20/2819Z TN12/2811Z

Example: see airport list